createdAt,value
2023-03-01T00:01:49.285Z,98812.72
2023-03-01T00:04:19.310Z,98809.91
2023-03-01T00:06:48.365Z,98799.97
2023-03-01T00:09:17.070Z,98802.78
2023-03-01T00:11:45.643Z,98801.59
2023-03-01T00:14:16.330Z,98800.94
2023-03-01T00:16:46.195Z,98793.84
2023-03-01T00:19:16.427Z,98803.75
2023-03-01T00:21:46.485Z,98805.88
2023-03-01T00:24:14.484Z,98810.19
2023-03-01T00:26:42.785Z,98815.00
2023-03-01T00:29:10.806Z,98819.28
2023-03-01T00:31:38.792Z,98802.91
2023-03-01T00:34:07.994Z,98808.50
2023-03-01T00:36:39.071Z,98808.84
2023-03-01T00:39:14.687Z,98799.25
2023-03-01T00:41:43.007Z,98804.53
2023-03-01T00:44:11.238Z,98809.97
2023-03-01T00:46:39.878Z,98803.88
2023-03-01T00:49:07.888Z,98806.69
2023-03-01T00:51:36.079Z,98798.56
2023-03-01T00:54:05.497Z,98803.03
2023-03-01T00:56:35.155Z,98804.16
2023-03-01T00:59:03.702Z,98808.78
2023-03-01T01:01:33.419Z,98808.44
2023-03-01T01:04:03.909Z,98801.34
2023-03-01T01:06:35.486Z,98802.47
2023-03-01T01:09:04.660Z,98795.84
2023-03-01T01:11:35.890Z,98806.59
2023-03-01T01:14:04.899Z,98798.81
2023-03-01T01:16:33.468Z,98800.94
2023-03-01T01:19:01.822Z,98797.63
2023-03-01T01:21:30.014Z,98797.81
2023-03-01T01:23:59.651Z,98789.88
2023-03-01T01:26:29.811Z,98793.84
2023-03-01T01:28:59.861Z,98790.88
2023-03-01T01:31:29.245Z,98766.28
2023-03-01T01:33:58.217Z,98767.78
2023-03-01T01:36:26.269Z,98764.47
2023-03-01T01:38:54.607Z,98762.84
2023-03-01T01:41:24.003Z,98754.25
2023-03-01T01:44:14.993Z,98748.66
2023-03-01T01:46:45.532Z,98744.69
2023-03-01T01:49:21.796Z,98742.88
2023-03-01T01:51:53.283Z,98750.47
2023-03-01T01:54:25.086Z,98750.00
2023-03-01T01:56:57.220Z,98751.81
2023-03-01T01:59:27.482Z,98748.34
2023-03-01T02:01:55.532Z,98744.88
2023-03-01T02:04:23.966Z,98743.38
2023-03-01T02:06:57.843Z,98741.25
2023-03-01T02:09:26.575Z,98741.41
2023-03-01T02:11:55.599Z,98736.94
2023-03-01T02:14:24.035Z,98736.63
2023-03-01T02:16:53.395Z,98734.63
2023-03-01T02:19:36.868Z,98728.84
2023-03-01T02:22:15.564Z,98725.22
2023-03-01T02:24:52.431Z,98718.28
2023-03-01T02:27:26.932Z,98717.28
2023-03-01T02:29:57.747Z,98712.81
2023-03-01T02:32:26.783Z,98702.09
2023-03-01T02:34:55.998Z,98708.03
2023-03-01T02:37:26.838Z,98710.84
2023-03-01T02:40:00.178Z,98705.88
2023-03-01T02:42:33.093Z,98699.94
2023-03-01T02:45:02.475Z,98701.25
2023-03-01T02:47:30.385Z,98693.81
2023-03-01T02:49:58.644Z,98693.00
2023-03-01T02:52:41.178Z,98693.00
2023-03-01T02:55:13.062Z,98689.69
2023-03-01T02:57:44.273Z,98688.03
2023-03-01T03:00:20.405Z,98691.16
2023-03-01T03:02:48.994Z,98691.00
2023-03-01T03:05:19.644Z,98688.53
2023-03-01T03:07:49.584Z,98688.53
2023-03-01T03:10:21.220Z,98681.25
2023-03-01T03:12:52.639Z,98677.13
2023-03-01T03:15:23.153Z,98678.78
2023-03-01T03:17:52.063Z,98669.69
2023-03-01T03:20:22.031Z,98672.97
2023-03-01T03:22:51.881Z,98677.44
2023-03-01T03:25:21.413Z,98671.00
2023-03-01T03:27:57.741Z,98677.44
2023-03-01T03:30:29.384Z,98677.63
2023-03-01T03:32:58.585Z,98667.34
2023-03-01T03:35:31.365Z,98672.16
2023-03-01T03:38:03.769Z,98672.66
2023-03-01T03:40:33.568Z,98670.84
2023-03-01T03:43:01.497Z,98673.78
2023-03-01T03:45:34.291Z,98669.84
2023-03-01T03:48:03.363Z,98667.31
2023-03-01T03:50:31.586Z,98666.38
2023-03-01T03:52:59.686Z,98654.13
2023-03-01T03:55:31.696Z,98647.69
2023-03-01T03:58:03.311Z,98648.50
2023-03-01T04:00:32.776Z,98644.53
2023-03-01T04:03:01.816Z,98643.53
2023-03-01T04:05:30.915Z,98643.50
2023-03-01T04:08:08.220Z,98637.25
2023-03-01T04:10:39.220Z,98646.31
2023-03-01T04:13:07.865Z,98638.38
2023-03-01T04:15:37.773Z,98637.59
2023-03-01T04:18:06.470Z,98635.63
2023-03-01T04:20:36.993Z,98637.09
2023-03-01T04:23:14.455Z,98638.88
2023-03-01T04:25:44.754Z,98630.28
2023-03-01T04:28:13.146Z,98630.94
2023-03-01T04:30:42.595Z,98618.56
2023-03-01T04:33:12.137Z,98630.66
2023-03-01T04:35:41.422Z,98634.63
2023-03-01T04:38:10.700Z,98634.13
2023-03-01T04:40:38.898Z,98636.59
2023-03-01T04:43:07.436Z,98646.03
2023-03-01T04:45:36.687Z,98635.44
2023-03-01T04:48:06.925Z,98633.63
2023-03-01T04:50:35.114Z,98641.41
2023-03-01T04:53:03.329Z,98634.78
2023-03-01T04:55:32.458Z,98638.59
2023-03-01T04:58:00.810Z,98642.41
2023-03-01T05:00:28.828Z,98636.28
2023-03-01T05:02:58.985Z,98630.16
2023-03-01T05:05:30.580Z,98633.81
2023-03-01T05:08:00.476Z,98635.75
2023-03-01T05:10:30.451Z,98640.25
2023-03-01T05:12:59.469Z,98637.25
2023-03-01T05:15:28.904Z,98637.56
2023-03-01T05:18:01.223Z,98630.66
2023-03-01T05:20:31.854Z,98630.97
2023-03-01T05:23:06.339Z,98620.06
2023-03-01T05:25:41.130Z,98614.94
2023-03-01T05:28:13.387Z,98613.47
2023-03-01T05:30:42.259Z,98618.91
2023-03-01T05:33:14.381Z,98624.22
2023-03-01T05:35:45.740Z,98627.69
2023-03-01T05:38:15.300Z,98624.03
2023-03-01T05:40:44.670Z,98620.91
2023-03-01T05:43:13.399Z,98627.19
2023-03-01T05:45:46.393Z,98620.56
2023-03-01T05:48:15.030Z,98611.16
2023-03-01T05:50:46.777Z,98622.22
2023-03-01T05:53:16.898Z,98616.63
2023-03-01T05:55:47.184Z,98616.78
2023-03-01T05:58:18.080Z,98614.28
2023-03-01T06:00:47.327Z,98614.78
2023-03-01T06:03:17.206Z,98612.78
2023-03-01T06:05:47.130Z,98613.63
2023-03-01T06:08:15.249Z,98612.47
2023-03-01T06:10:43.666Z,98613.13
2023-03-01T06:13:11.835Z,98622.91
2023-03-01T06:15:39.816Z,98617.28
2023-03-01T06:18:08.073Z,98616.78
2023-03-01T06:20:36.544Z,98622.56
2023-03-01T06:23:05.886Z,98617.28
2023-03-01T06:25:33.873Z,98625.72
2023-03-01T06:28:01.755Z,98625.88
2023-03-01T06:30:29.728Z,98617.78
2023-03-01T06:33:02.601Z,98624.88
2023-03-01T06:35:32.187Z,98622.25
2023-03-01T06:38:01.336Z,98625.22
2023-03-01T06:40:30.785Z,98621.91
2023-03-01T06:42:59.625Z,98622.25
2023-03-01T06:45:30.415Z,98623.72
2023-03-01T06:48:06.708Z,98621.25
2023-03-01T06:50:36.009Z,98623.91
2023-03-01T06:53:04.304Z,98619.09
2023-03-01T06:55:34.221Z,98614.81
2023-03-01T06:58:03.757Z,98614.16
2023-03-01T07:00:32.044Z,98610.50
2023-03-01T07:03:02.987Z,98613.00
2023-03-01T07:05:31.857Z,98613.81
2023-03-01T07:07:59.985Z,98612.16
2023-03-01T07:10:28.369Z,98608.38
2023-03-01T07:13:00.947Z,98613.97
2023-03-01T07:15:29.665Z,98610.66
2023-03-01T07:17:59.053Z,98612.81
2023-03-01T07:20:27.270Z,98594.31
2023-03-01T07:22:55.750Z,98607.84
2023-03-01T07:25:24.230Z,98606.38
2023-03-01T07:27:53.721Z,98606.34
2023-03-01T07:30:24.334Z,98604.69
2023-03-01T07:32:54.194Z,98593.28
2023-03-01T07:35:24.126Z,98596.38
2023-03-01T07:37:52.193Z,98594.69
2023-03-01T07:40:20.368Z,98592.22
2023-03-01T07:42:48.563Z,98589.91
2023-03-01T07:45:16.638Z,98598.97
2023-03-01T07:47:46.183Z,98591.84
2023-03-01T07:50:14.497Z,98591.63
2023-03-01T07:52:42.683Z,98589.25
2023-03-01T07:55:11.411Z,98589.53
2023-03-01T07:57:39.604Z,98582.72
2023-03-01T08:00:09.137Z,98579.41
2023-03-01T08:02:37.125Z,98572.81
2023-03-01T08:05:07.139Z,98580.84
2023-03-01T08:07:36.121Z,98575.03
2023-03-01T08:10:04.322Z,98567.50
2023-03-01T08:12:32.214Z,98559.84
2023-03-01T08:15:00.161Z,98563.25
2023-03-01T08:17:28.598Z,98571.13
2023-03-01T08:19:56.698Z,98568.50
2023-03-01T08:22:26.216Z,98567.88
2023-03-01T08:24:55.675Z,98559.84
2023-03-01T08:27:25.887Z,98560.41
2023-03-01T08:29:53.889Z,98559.78
2023-03-01T08:32:22.030Z,98558.34
2023-03-01T08:34:49.997Z,98550.06
2023-03-01T08:37:17.929Z,98559.75
2023-03-01T08:39:47.520Z,98556.91
2023-03-01T08:42:15.581Z,98552.59
2023-03-01T08:44:45.936Z,98555.44
2023-03-01T08:47:15.363Z,98556.53
2023-03-01T08:49:43.280Z,98550.47
2023-03-01T08:52:11.518Z,98542.56
2023-03-01T08:54:39.515Z,98545.09
2023-03-01T08:57:10.710Z,98539.31
2023-03-01T08:59:39.259Z,98540.72
2023-03-01T09:02:08.325Z,98537.31
2023-03-01T09:04:36.344Z,98534.97
2023-03-01T09:07:04.555Z,98532.69
2023-03-01T09:09:32.582Z,98532.19
2023-03-01T09:12:00.733Z,98534.88
2023-03-01T09:14:30.216Z,98519.75
2023-03-01T09:16:58.479Z,98519.59
2023-03-01T09:19:27.453Z,98513.38
2023-03-01T09:21:56.944Z,98512.59
2023-03-01T09:24:26.366Z,98501.16
2023-03-01T09:26:56.977Z,98496.31
2023-03-01T09:29:25.249Z,98498.25
2023-03-01T09:31:56.296Z,98491.31
2023-03-01T09:34:25.399Z,98487.88
2023-03-01T09:36:53.784Z,98494.28
2023-03-01T09:39:22.759Z,98492.63
2023-03-01T09:41:56.458Z,98490.22
2023-03-01T09:44:33.088Z,98487.81
2023-03-01T09:47:03.267Z,98493.16
2023-03-01T09:49:37.069Z,98484.75
2023-03-01T09:52:14.821Z,98476.94
2023-03-01T09:54:43.167Z,98467.91
2023-03-01T09:57:20.840Z,98468.53
2023-03-01T10:00:02.600Z,98460.09
2023-03-01T10:02:41.506Z,98460.91
2023-03-01T10:05:24.260Z,98452.06
2023-03-01T10:08:04.185Z,98451.66
2023-03-01T10:10:36.775Z,98462.13
2023-03-01T10:13:10.615Z,98458.63
2023-03-01T10:15:45.428Z,98449.38
2023-03-01T10:18:20.252Z,98452.41
2023-03-01T10:20:55.630Z,98453.66
2023-03-01T10:23:25.397Z,98445.28
2023-03-01T10:26:18.574Z,98430.22
2023-03-01T10:28:56.633Z,98433.88
2023-03-01T10:31:31.053Z,98422.97
2023-03-01T10:34:02.111Z,98415.13
2023-03-01T10:36:35.602Z,98414.22
2023-03-01T10:39:14.851Z,98419.94
2023-03-01T10:41:57.729Z,98419.28
2023-03-01T10:44:52.792Z,98429.34
2023-03-01T10:47:23.325Z,98418.28
2023-03-01T10:50:00.969Z,98416.38
2023-03-01T10:52:32.806Z,98412.50
2023-03-01T10:55:03.922Z,98413.81
2023-03-01T10:57:42.450Z,98397.63
2023-03-01T11:00:28.955Z,98405.75
2023-03-01T11:03:14.360Z,98395.81
2023-03-01T11:06:00.020Z,98390.81
2023-03-01T11:08:40.004Z,98384.31
2023-03-01T11:11:16.868Z,98383.88
2023-03-01T11:13:54.360Z,98378.41
2023-03-01T11:16:28.252Z,98375.06
2023-03-01T11:19:06.905Z,98373.81
2023-03-01T11:21:38.988Z,98364.56
2023-03-01T11:24:12.188Z,98352.09
2023-03-01T11:26:43.927Z,98363.94
2023-03-01T11:29:20.033Z,98364.38
2023-03-01T11:31:57.645Z,98352.69
2023-03-01T11:34:36.585Z,98348.72
2023-03-01T11:37:13.641Z,98344.34
2023-03-01T11:39:46.035Z,98345.84
2023-03-01T11:42:19.390Z,98346.09
2023-03-01T11:44:52.668Z,98335.88
2023-03-01T11:47:35.202Z,98315.81
2023-03-01T11:50:18.909Z,98319.22
2023-03-01T11:53:05.033Z,98304.41
2023-03-01T11:55:48.385Z,98306.41
2023-03-01T11:58:39.064Z,98298.94
2023-03-01T12:01:42.669Z,98294.28
2023-03-01T12:04:56.172Z,98288.78
2023-03-01T12:07:34.348Z,98289.59
2023-03-01T12:10:22.655Z,98286.69
2023-03-01T12:13:13.776Z,98286.34
2023-03-01T12:16:04.577Z,98270.69
2023-03-01T12:19:03.239Z,98261.31
2023-03-01T12:21:51.271Z,98268.56
2023-03-01T12:24:39.855Z,98260.47
2023-03-01T12:27:32.284Z,98253.81
2023-03-01T12:30:15.638Z,98249.81
2023-03-01T12:32:56.510Z,98248.84
2023-03-01T12:35:57.342Z,98249.84
2023-03-01T12:38:45.826Z,98243.91
2023-03-01T12:41:45.078Z,98233.16
2023-03-01T12:44:26.476Z,98225.41
2023-03-01T12:47:09.021Z,98223.91
2023-03-01T12:49:42.445Z,98216.00
2023-03-01T12:52:16.341Z,98214.72
2023-03-01T12:54:44.541Z,98200.38
2023-03-01T12:57:20.657Z,98205.16
2023-03-01T13:00:03.045Z,98207.03
2023-03-01T13:02:38.307Z,98193.16
2023-03-01T13:05:27.695Z,98190.25
2023-03-01T13:08:03.737Z,98200.66
2023-03-01T13:10:37.207Z,98197.50
2023-03-01T13:13:16.340Z,98198.16
2023-03-01T13:15:48.863Z,98193.41
2023-03-01T13:18:35.219Z,98199.13
2023-03-01T13:21:06.602Z,98196.22
2023-03-01T13:23:37.715Z,98196.16
2023-03-01T13:26:12.975Z,98196.25
2023-03-01T13:28:48.431Z,98200.66
2023-03-01T13:32:05.709Z,98190.56
2023-03-01T13:34:55.869Z,98189.19
2023-03-01T13:37:32.665Z,98187.94
2023-03-01T13:40:05.864Z,98197.00
2023-03-01T13:42:56.254Z,98197.13
2023-03-01T13:45:38.232Z,98198.03
2023-03-01T13:48:13.081Z,98191.75
2023-03-01T13:50:53.763Z,98191.38
2023-03-01T13:53:24.720Z,98192.63
2023-03-01T13:55:59.587Z,98193.50
2023-03-01T13:58:31.581Z,98190.59
2023-03-01T14:01:02.507Z,98186.63
2023-03-01T14:03:32.914Z,98190.63
2023-03-01T14:06:15.353Z,98174.59
2023-03-01T14:08:45.908Z,98177.28
2023-03-01T14:11:51.262Z,98180.16
2023-03-01T14:14:40.016Z,98170.13
2023-03-01T14:17:43.245Z,98171.88
2023-03-01T14:20:16.628Z,98170.13
2023-03-01T14:22:47.566Z,98173.84
2023-03-01T14:25:24.173Z,98180.13
2023-03-01T14:28:04.685Z,98181.56
2023-03-01T14:30:37.425Z,98181.22
2023-03-01T14:33:07.757Z,98195.19
2023-03-01T14:35:37.882Z,98198.09
2023-03-01T14:38:08.546Z,98195.00
2023-03-01T14:40:38.889Z,98202.34
2023-03-01T14:43:13.121Z,98209.91
2023-03-01T14:45:41.104Z,98204.09
2023-03-01T14:48:10.112Z,98203.50
2023-03-01T14:50:43.354Z,98219.47
2023-03-01T14:53:20.263Z,98210.47
2023-03-01T14:55:50.835Z,98208.28
2023-03-01T14:58:24.145Z,98211.31
2023-03-01T15:00:54.523Z,98208.41
2023-03-01T15:03:29.810Z,98212.38
2023-03-01T15:05:58.089Z,98208.03
2023-03-01T15:08:34.136Z,98201.03
2023-03-01T15:11:19.395Z,98200.69
2023-03-01T15:13:48.381Z,98198.13
2023-03-01T15:16:18.348Z,98201.28
2023-03-01T15:18:48.329Z,98207.00
2023-03-01T15:21:20.434Z,98206.97
2023-03-01T15:23:59.724Z,98204.88
2023-03-01T15:26:31.826Z,98209.41
2023-03-01T15:29:02.060Z,98211.47
2023-03-01T15:31:32.085Z,98201.44
2023-03-01T15:34:23.359Z,98204.69
2023-03-01T15:36:52.975Z,98207.16
2023-03-01T15:39:55.034Z,98208.31
2023-03-01T15:42:39.049Z,98204.34
2023-03-01T15:45:12.019Z,98195.16
2023-03-01T15:47:42.980Z,98200.28
2023-03-01T15:50:19.682Z,98196.31
2023-03-01T15:52:48.004Z,98193.16
2023-03-01T15:55:22.800Z,98192.00
2023-03-01T15:57:52.690Z,98187.81
2023-03-01T16:00:21.654Z,98185.13
2023-03-01T16:02:49.639Z,98186.38
2023-03-01T16:05:24.184Z,98176.22
2023-03-01T16:07:52.776Z,98174.72
2023-03-01T16:10:22.948Z,98171.47
2023-03-01T16:12:53.731Z,98165.47
2023-03-01T16:15:23.583Z,98161.53
2023-03-01T16:17:53.247Z,98166.06
2023-03-01T16:20:28.407Z,98166.97
2023-03-01T16:23:01.240Z,98152.41
2023-03-01T16:25:31.483Z,98169.75
2023-03-01T16:28:01.865Z,98160.75
2023-03-01T16:30:30.152Z,98165.16
2023-03-01T16:32:59.400Z,98170.03
2023-03-01T16:35:27.546Z,98163.34
2023-03-01T16:37:55.552Z,98164.09
2023-03-01T16:40:29.353Z,98169.19
2023-03-01T16:43:02.227Z,98160.56
2023-03-01T16:45:35.001Z,98169.72
2023-03-01T16:48:03.120Z,98171.44
2023-03-01T16:50:31.420Z,98173.31
2023-03-01T16:52:59.747Z,98176.72
2023-03-01T16:55:27.987Z,98182.00
2023-03-01T16:57:56.259Z,98187.81
2023-03-01T17:00:25.771Z,98183.41
2023-03-01T17:02:54.367Z,98188.47
2023-03-01T17:05:25.089Z,98199.09
2023-03-01T17:07:55.800Z,98206.16
2023-03-01T17:10:28.657Z,98206.03
2023-03-01T17:12:56.707Z,98210.41
2023-03-01T17:15:27.012Z,98205.94
2023-03-01T17:17:55.313Z,98217.13
2023-03-01T17:20:28.326Z,98217.59
2023-03-01T17:22:56.586Z,98214.38
2023-03-01T17:25:24.794Z,98216.50
2023-03-01T17:27:52.712Z,98217.38
2023-03-01T17:30:20.908Z,98222.72
2023-03-01T17:32:50.657Z,98225.22
2023-03-01T17:35:18.774Z,98234.09
2023-03-01T17:37:46.765Z,98237.84
2023-03-01T17:40:14.924Z,98235.81
2023-03-01T17:42:43.182Z,98242.78
2023-03-01T17:45:11.844Z,98235.81
2023-03-01T17:47:40.110Z,98242.38
2023-03-01T17:50:10.934Z,98240.94
2023-03-01T17:52:39.131Z,98243.22
2023-03-01T17:55:08.122Z,98249.56
2023-03-01T17:57:36.970Z,98239.53
2023-03-01T18:00:06.467Z,98239.75
2023-03-01T18:02:34.820Z,98236.69
2023-03-01T18:05:03.141Z,98235.25
2023-03-01T18:07:32.451Z,98230.56
2023-03-01T18:10:00.305Z,98223.56
2023-03-01T18:12:30.966Z,98237.13
2023-03-01T18:14:59.572Z,98230.38
2023-03-01T18:17:27.579Z,98230.56
2023-03-01T18:19:56.710Z,98234.09
2023-03-01T18:22:24.664Z,98232.44
2023-03-01T18:24:54.034Z,98228.56
2023-03-01T18:27:22.010Z,98233.97
2023-03-01T18:29:49.976Z,98234.59
2023-03-01T18:32:18.209Z,98242.19
2023-03-01T18:34:46.277Z,98239.72
2023-03-01T18:37:14.502Z,98237.69
2023-03-01T18:39:42.711Z,98235.03
2023-03-01T18:42:12.018Z,98239.16
2023-03-01T18:44:40.044Z,98241.63
2023-03-01T18:47:07.941Z,98240.59
2023-03-01T18:49:36.413Z,98240.00
2023-03-01T18:52:04.685Z,98231.81
2023-03-01T18:54:35.335Z,98229.13
2023-03-01T18:57:03.325Z,98225.47
2023-03-01T18:59:32.969Z,98231.63
2023-03-01T19:02:00.983Z,98219.31
2023-03-01T19:04:29.075Z,98225.88
2023-03-01T19:06:56.998Z,98219.56
2023-03-01T19:09:24.967Z,98232.06
2023-03-01T19:11:52.954Z,98223.03
2023-03-01T19:14:20.922Z,98222.84
2023-03-01T19:16:50.378Z,98227.75
2023-03-01T19:19:18.331Z,98221.59
2023-03-01T19:21:56.007Z,98222.81
2023-03-01T19:24:31.655Z,98213.63
2023-03-01T19:26:59.929Z,98214.63
2023-03-01T19:29:28.059Z,98219.34
2023-03-01T19:31:57.346Z,98214.44
2023-03-01T19:34:25.558Z,98213.22
2023-03-01T19:36:53.565Z,98213.41
2023-03-01T19:39:22.607Z,98222.63
2023-03-01T19:41:50.539Z,98216.28
2023-03-01T19:44:18.448Z,98203.38
2023-03-01T19:46:46.375Z,98211.34
2023-03-01T19:49:18.412Z,98205.22
2023-03-01T19:51:47.273Z,98204.19
2023-03-01T19:54:20.129Z,98203.78
2023-03-01T19:56:48.269Z,98216.88
2023-03-01T19:59:16.615Z,98207.06
2023-03-01T20:01:44.611Z,98211.78
2023-03-01T20:04:13.743Z,98214.63
2023-03-01T20:06:46.470Z,98211.97
2023-03-01T20:09:21.873Z,98216.28
2023-03-01T20:11:51.693Z,98214.84
2023-03-01T20:14:23.703Z,98217.28
2023-03-01T20:16:52.978Z,98217.72
2023-03-01T20:19:21.432Z,98218.75
2023-03-01T20:21:51.315Z,98214.22
2023-03-01T20:24:21.116Z,98214.63
2023-03-01T20:26:49.498Z,98210.53
2023-03-01T20:29:18.010Z,98211.56
2023-03-01T20:31:46.060Z,98208.91
2023-03-01T20:34:15.462Z,98207.88
2023-03-01T20:36:44.406Z,98203.56
2023-03-01T20:39:14.251Z,98198.22
2023-03-01T20:41:42.800Z,98207.66
2023-03-01T20:44:12.204Z,98203.34
2023-03-01T20:46:40.620Z,98196.78
2023-03-01T20:49:08.742Z,98193.09
2023-03-01T20:51:36.922Z,98194.31
2023-03-01T20:54:06.269Z,98192.69
2023-03-01T20:56:35.864Z,98195.34
2023-03-01T20:59:05.034Z,98195.94
2023-03-01T21:01:33.731Z,98194.31
2023-03-01T21:04:01.803Z,98200.47
2023-03-01T21:06:30.370Z,98200.88
2023-03-01T21:08:59.070Z,98197.59
2023-03-01T21:11:27.474Z,98200.44
2023-03-01T21:13:57.274Z,98197.78
2023-03-01T21:16:25.476Z,98192.03
2023-03-01T21:18:53.472Z,98185.28
2023-03-01T21:21:24.198Z,98186.91
2023-03-01T21:23:52.636Z,98200.00
2023-03-01T21:26:24.960Z,98199.78
2023-03-01T21:28:57.614Z,98195.47
2023-03-01T21:31:28.751Z,98190.13
2023-03-01T21:33:58.905Z,98193.81
2023-03-01T21:36:30.285Z,98200.34
2023-03-01T21:39:01.126Z,98190.94
2023-03-01T21:41:31.253Z,98191.31
2023-03-01T21:44:03.139Z,98187.03
2023-03-01T21:46:33.301Z,98188.44
2023-03-01T21:49:02.725Z,98184.97
2023-03-01T21:51:31.476Z,98182.91
2023-03-01T21:54:01.920Z,98180.84
2023-03-01T21:56:34.641Z,98176.16
2023-03-01T21:59:04.282Z,98170.88
2023-03-01T22:01:32.410Z,98178.03
2023-03-01T22:04:03.726Z,98167.41
2023-03-01T22:06:35.255Z,98174.78
2023-03-01T22:09:07.684Z,98167.59
2023-03-01T22:11:38.035Z,98170.88
2023-03-01T22:14:07.993Z,98171.06
2023-03-01T22:16:38.272Z,98176.38
2023-03-01T22:19:10.135Z,98179.84
2023-03-01T22:21:41.044Z,98172.69
2023-03-01T22:24:10.119Z,98166.75
2023-03-01T22:26:40.485Z,98177.97
2023-03-01T22:29:12.737Z,98163.69
2023-03-01T22:31:42.400Z,98168.56
2023-03-01T22:34:10.990Z,98173.44
2023-03-01T22:36:40.480Z,98173.25
2023-03-01T22:39:08.741Z,98174.66
2023-03-01T22:41:41.453Z,98168.09
2023-03-01T22:44:10.960Z,98165.00
2023-03-01T22:46:39.273Z,98167.63
2023-03-01T22:49:07.336Z,98173.16
2023-03-01T22:51:38.199Z,98170.50
2023-03-01T22:54:07.117Z,98171.31
2023-03-01T22:56:38.016Z,98172.34
2023-03-01T22:59:09.818Z,98171.50
2023-03-01T23:01:41.025Z,98162.91
2023-03-01T23:04:09.603Z,98163.94
2023-03-01T23:06:50.635Z,98168.00
2023-03-01T23:09:19.793Z,98163.31
2023-03-01T23:11:47.781Z,98159.22
2023-03-01T23:14:16.275Z,98163.69
2023-03-01T23:16:45.655Z,98164.72
2023-03-01T23:19:13.784Z,98153.03
2023-03-01T23:21:46.830Z,98161.41
2023-03-01T23:24:15.410Z,98161.41
2023-03-01T23:26:45.687Z,98170.56
2023-03-01T23:29:14.012Z,98157.28
2023-03-01T23:31:42.152Z,98158.31
2023-03-01T23:34:11.477Z,98160.78
2023-03-01T23:36:45.022Z,98161.66
2023-03-01T23:39:15.256Z,98155.25
2023-03-01T23:41:43.448Z,98152.22
2023-03-01T23:44:16.085Z,98152.41
2023-03-01T23:46:44.604Z,98143.19
2023-03-01T23:49:15.684Z,98153.19
2023-03-01T23:51:44.802Z,98148.06
2023-03-01T23:54:15.246Z,98151.13
2023-03-01T23:56:45.008Z,98151.56
2023-03-01T23:59:16.154Z,98154.16
